sensor_id;sensor_type;location;lat;lon;timestamp;P1;durP1;ratioP1;P2;durP2;ratioP2
25846;SDS011;13676;50.168;8.568;2023-04-03T00:01:36;3.40;;;1.40;;
25846;SDS011;13676;50.168;8.568;2023-04-03T00:04:03;4.35;;;2.05;;
25846;SDS011;13676;50.168;8.568;2023-04-03T00:06:30;5.47;;;2.20;;
25846;SDS011;13676;50.168;8.568;2023-04-03T00:08:56;5.95;;;1.58;;
25846;SDS011;13676;50.168;8.568;2023-04-03T00:11:22;4.10;;;1.30;;
25846;SDS011;13676;50.168;8.568;2023-04-03T00:13:47;2.75;;;1.65;;
25846;SDS011;13676;50.168;8.568;2023-04-03T00:16:13;8.02;;;2.08;;
25846;SDS011;13676;50.168;8.568;2023-04-03T00:18:39;5.18;;;1.33;;
25846;SDS011;13676;50.168;8.568;2023-04-03T00:21:06;4.85;;;1.63;;
25846;SDS011;13676;50.168;8.568;2023-04-03T00:23:32;5.85;;;1.80;;
25846;SDS011;13676;50.168;8.568;2023-04-03T00:25:58;4.50;;;1.83;;
25846;SDS011;13676;50.168;8.568;2023-04-03T00:28:23;10.40;;;2.15;;
25846;SDS011;13676;50.168;8.568;2023-04-03T00:30:49;4.25;;;1.50;;
25846;SDS011;13676;50.168;8.568;2023-04-03T00:33:15;4.38;;;1.77;;
25846;SDS011;13676;50.168;8.568;2023-04-03T00:35:41;4.32;;;1.60;;
25846;SDS011;13676;50.168;8.568;2023-04-03T00:38:07;4.20;;;1.75;;
25846;SDS011;13676;50.168;8.568;2023-04-03T00:40:36;3.75;;;1.60;;
25846;SDS011;13676;50.168;8.568;2023-04-03T00:43:11;4.55;;;1.60;;
25846;SDS011;13676;50.168;8.568;2023-04-03T00:45:40;5.07;;;1.35;;
25846;SDS011;13676;50.168;8.568;2023-04-03T00:48:09;5.43;;;1.60;;
25846;SDS011;13676;50.168;8.568;2023-04-03T00:50:38;3.53;;;1.60;;
25846;SDS011;13676;50.168;8.568;2023-04-03T00:53:06;4.70;;;1.63;;
25846;SDS011;13676;50.168;8.568;2023-04-03T00:55:34;3.80;;;1.40;;
25846;SDS011;13676;50.168;8.568;2023-04-03T00:58:00;4.07;;;1.50;;
25846;SDS011;13676;50.168;8.568;2023-04-03T01:00:26;3.30;;;1.20;;
25846;SDS011;13676;50.168;8.568;2023-04-03T01:02:52;6.25;;;1.80;;
25846;SDS011;13676;50.168;8.568;2023-04-03T01:05:17;4.90;;;1.63;;
25846;SDS011;13676;50.168;8.568;2023-04-03T01:07:44;5.90;;;1.73;;
25846;SDS011;13676;50.168;8.568;2023-04-03T01:10:10;5.93;;;1.70;;
25846;SDS011;13676;50.168;8.568;2023-04-03T01:12:39;4.65;;;1.50;;
25846;SDS011;13676;50.168;8.568;2023-04-03T01:15:07;4.17;;;1.80;;
25846;SDS011;13676;50.168;8.568;2023-04-03T01:17:39;4.28;;;1.95;;
25846;SDS011;13676;50.168;8.568;2023-04-03T01:25:42;4.70;;;1.58;;
25846;SDS011;13676;50.168;8.568;2023-04-03T01:28:11;3.00;;;1.40;;
25846;SDS011;13676;50.168;8.568;2023-04-03T01:33:19;4.00;;;1.58;;
25846;SDS011;13676;50.168;8.568;2023-04-03T01:35:45;5.10;;;1.80;;
25846;SDS011;13676;50.168;8.568;2023-04-03T01:38:10;5.68;;;1.92;;
25846;SDS011;13676;50.168;8.568;2023-04-03T01:40:36;5.38;;;1.80;;
25846;SDS011;13676;50.168;8.568;2023-04-03T01:43:01;3.83;;;1.67;;
25846;SDS011;13676;50.168;8.568;2023-04-03T01:45:27;5.88;;;2.15;;
25846;SDS011;13676;50.168;8.568;2023-04-03T01:47:52;3.78;;;1.85;;
25846;SDS011;13676;50.168;8.568;2023-04-03T01:50:17;4.78;;;1.70;;
25846;SDS011;13676;50.168;8.568;2023-04-03T01:52:43;6.43;;;2.10;;
25846;SDS011;13676;50.168;8.568;2023-04-03T01:55:08;9.60;;;1.70;;
25846;SDS011;13676;50.168;8.568;2023-04-03T01:57:34;9.77;;;2.05;;
25846;SDS011;13676;50.168;8.568;2023-04-03T01:59:59;4.15;;;1.85;;
25846;SDS011;13676;50.168;8.568;2023-04-03T02:02:24;6.93;;;1.70;;
25846;SDS011;13676;50.168;8.568;2023-04-03T02:04:50;6.40;;;2.30;;
25846;SDS011;13676;50.168;8.568;2023-04-03T02:07:15;5.32;;;1.85;;
25846;SDS011;13676;50.168;8.568;2023-04-03T02:09:41;2.63;;;1.85;;
25846;SDS011;13676;50.168;8.568;2023-04-03T02:12:06;4.72;;;1.88;;
25846;SDS011;13676;50.168;8.568;2023-04-03T02:14:31;5.85;;;1.63;;
25846;SDS011;13676;50.168;8.568;2023-04-03T02:16:57;8.63;;;2.03;;
25846;SDS011;13676;50.168;8.568;2023-04-03T02:19:22;5.07;;;1.95;;
25846;SDS011;13676;50.168;8.568;2023-04-03T02:21:48;5.53;;;1.88;;
25846;SDS011;13676;50.168;8.568;2023-04-03T02:24:13;5.57;;;1.50;;
25846;SDS011;13676;50.168;8.568;2023-04-03T02:26:38;4.38;;;2.00;;
25846;SDS011;13676;50.168;8.568;2023-04-03T02:29:04;3.33;;;1.35;;
25846;SDS011;13676;50.168;8.568;2023-04-03T02:31:29;10.85;;;1.92;;
25846;SDS011;13676;50.168;8.568;2023-04-03T02:33:55;5.50;;;1.90;;
25846;SDS011;13676;50.168;8.568;2023-04-03T02:36:20;6.78;;;1.80;;
25846;SDS011;13676;50.168;8.568;2023-04-03T02:38:46;4.65;;;1.80;;
25846;SDS011;13676;50.168;8.568;2023-04-03T02:41:11;5.18;;;1.95;;
25846;SDS011;13676;50.168;8.568;2023-04-03T02:43:37;6.05;;;1.90;;
25846;SDS011;13676;50.168;8.568;2023-04-03T02:46:03;4.38;;;1.52;;
25846;SDS011;13676;50.168;8.568;2023-04-03T02:48:29;6.10;;;1.80;;
25846;SDS011;13676;50.168;8.568;2023-04-03T02:50:54;7.28;;;2.17;;
25846;SDS011;13676;50.168;8.568;2023-04-03T02:53:20;4.68;;;1.80;;
25846;SDS011;13676;50.168;8.568;2023-04-03T02:55:45;5.80;;;1.80;;
25846;SDS011;13676;50.168;8.568;2023-04-03T02:58:11;5.95;;;1.98;;
25846;SDS011;13676;50.168;8.568;2023-04-03T03:00:36;9.10;;;2.35;;
25846;SDS011;13676;50.168;8.568;2023-04-03T03:03:01;4.32;;;1.73;;
25846;SDS011;13676;50.168;8.568;2023-04-03T03:05:27;5.03;;;1.63;;
25846;SDS011;13676;50.168;8.568;2023-04-03T03:07:54;7.63;;;1.80;;
25846;SDS011;13676;50.168;8.568;2023-04-03T03:10:19;7.30;;;1.95;;
25846;SDS011;13676;50.168;8.568;2023-04-03T03:12:45;6.82;;;2.10;;
25846;SDS011;13676;50.168;8.568;2023-04-03T03:15:10;5.63;;;1.77;;
25846;SDS011;13676;50.168;8.568;2023-04-03T03:17:36;6.50;;;1.92;;
25846;SDS011;13676;50.168;8.568;2023-04-03T03:20:02;5.10;;;1.60;;
25846;SDS011;13676;50.168;8.568;2023-04-03T03:22:28;5.13;;;1.88;;
25846;SDS011;13676;50.168;8.568;2023-04-03T03:24:54;6.75;;;1.70;;
25846;SDS011;13676;50.168;8.568;2023-04-03T03:27:19;10.38;;;2.10;;
25846;SDS011;13676;50.168;8.568;2023-04-03T03:29:45;10.38;;;2.28;;
25846;SDS011;13676;50.168;8.568;2023-04-03T03:32:11;7.93;;;2.00;;
25846;SDS011;13676;50.168;8.568;2023-04-03T03:34:36;5.25;;;1.90;;
25846;SDS011;13676;50.168;8.568;2023-04-03T03:37:01;11.25;;;2.33;;
25846;SDS011;13676;50.168;8.568;2023-04-03T03:39:27;6.90;;;1.85;;
25846;SDS011;13676;50.168;8.568;2023-04-03T03:41:53;8.30;;;1.92;;
25846;SDS011;13676;50.168;8.568;2023-04-03T03:44:18;8.25;;;1.70;;
25846;SDS011;13676;50.168;8.568;2023-04-03T03:46:44;7.32;;;1.80;;
25846;SDS011;13676;50.168;8.568;2023-04-03T03:49:10;4.72;;;1.75;;
25846;SDS011;13676;50.168;8.568;2023-04-03T03:51:36;6.03;;;2.08;;
25846;SDS011;13676;50.168;8.568;2023-04-03T03:54:02;9.15;;;2.28;;
25846;SDS011;13676;50.168;8.568;2023-04-03T03:56:28;4.85;;;2.00;;
25846;SDS011;13676;50.168;8.568;2023-04-03T03:58:53;7.68;;;2.05;;
25846;SDS011;13676;50.168;8.568;2023-04-03T04:01:21;11.30;;;2.22;;
25846;SDS011;13676;50.168;8.568;2023-04-03T04:03:47;5.80;;;2.03;;
25846;SDS011;13676;50.168;8.568;2023-04-03T04:06:12;6.50;;;2.28;;
25846;SDS011;13676;50.168;8.568;2023-04-03T04:08:38;6.75;;;2.10;;
25846;SDS011;13676;50.168;8.568;2023-04-03T04:11:03;10.00;;;1.98;;
25846;SDS011;13676;50.168;8.568;2023-04-03T04:13:28;6.90;;;1.92;;
25846;SDS011;13676;50.168;8.568;2023-04-03T04:15:54;7.63;;;2.30;;
25846;SDS011;13676;50.168;8.568;2023-04-03T04:18:19;7.20;;;1.98;;
25846;SDS011;13676;50.168;8.568;2023-04-03T04:20:46;11.23;;;2.70;;
25846;SDS011;13676;50.168;8.568;2023-04-03T04:23:11;11.02;;;2.58;;
25846;SDS011;13676;50.168;8.568;2023-04-03T04:25:36;4.63;;;1.92;;
25846;SDS011;13676;50.168;8.568;2023-04-03T04:28:02;7.10;;;2.17;;
25846;SDS011;13676;50.168;8.568;2023-04-03T04:30:27;10.13;;;2.50;;
25846;SDS011;13676;50.168;8.568;2023-04-03T04:32:52;9.00;;;2.42;;
25846;SDS011;13676;50.168;8.568;2023-04-03T04:35:18;7.90;;;2.17;;
25846;SDS011;13676;50.168;8.568;2023-04-03T04:37:43;10.75;;;1.98;;
25846;SDS011;13676;50.168;8.568;2023-04-03T04:40:08;13.80;;;2.67;;
25846;SDS011;13676;50.168;8.568;2023-04-03T04:42:34;5.03;;;1.98;;
25846;SDS011;13676;50.168;8.568;2023-04-03T04:44:59;8.40;;;2.55;;
25846;SDS011;13676;50.168;8.568;2023-04-03T04:47:25;5.97;;;2.30;;
25846;SDS011;13676;50.168;8.568;2023-04-03T04:49:50;6.15;;;2.30;;
25846;SDS011;13676;50.168;8.568;2023-04-03T04:52:16;8.23;;;2.17;;
25846;SDS011;13676;50.168;8.568;2023-04-03T04:54:41;6.53;;;2.35;;
25846;SDS011;13676;50.168;8.568;2023-04-03T04:57:06;7.75;;;2.63;;
25846;SDS011;13676;50.168;8.568;2023-04-03T04:59:32;10.80;;;2.75;;
25846;SDS011;13676;50.168;8.568;2023-04-03T05:01:57;7.47;;;2.28;;
25846;SDS011;13676;50.168;8.568;2023-04-03T05:04:26;9.05;;;2.22;;
25846;SDS011;13676;50.168;8.568;2023-04-03T05:06:51;7.80;;;2.35;;
25846;SDS011;13676;50.168;8.568;2023-04-03T05:09:16;11.32;;;2.63;;
25846;SDS011;13676;50.168;8.568;2023-04-03T05:11:42;9.30;;;2.70;;
25846;SDS011;13676;50.168;8.568;2023-04-03T05:14:08;7.15;;;1.95;;
25846;SDS011;13676;50.168;8.568;2023-04-03T05:16:33;5.20;;;2.10;;
25846;SDS011;13676;50.168;8.568;2023-04-03T05:18:58;6.30;;;2.33;;
25846;SDS011;13676;50.168;8.568;2023-04-03T05:21:24;5.07;;;2.20;;
25846;SDS011;13676;50.168;8.568;2023-04-03T05:23:51;7.93;;;2.67;;
25846;SDS011;13676;50.168;8.568;2023-04-03T05:26:16;5.55;;;2.25;;
25846;SDS011;13676;50.168;8.568;2023-04-03T05:28:42;5.95;;;2.03;;
25846;SDS011;13676;50.168;8.568;2023-04-03T05:31:07;3.05;;;1.70;;
25846;SDS011;13676;50.168;8.568;2023-04-03T05:33:32;8.45;;;2.47;;
25846;SDS011;13676;50.168;8.568;2023-04-03T05:36:02;10.02;;;2.67;;
25846;SDS011;13676;50.168;8.568;2023-04-03T05:38:28;8.20;;;2.60;;
25846;SDS011;13676;50.168;8.568;2023-04-03T05:40:53;11.65;;;2.38;;
25846;SDS011;13676;50.168;8.568;2023-04-03T05:43:19;5.82;;;2.50;;
25846;SDS011;13676;50.168;8.568;2023-04-03T05:45:44;5.97;;;2.05;;
25846;SDS011;13676;50.168;8.568;2023-04-03T05:48:09;6.97;;;2.20;;
25846;SDS011;13676;50.168;8.568;2023-04-03T05:50:35;6.40;;;2.22;;
25846;SDS011;13676;50.168;8.568;2023-04-03T05:53:06;8.50;;;2.55;;
25846;SDS011;13676;50.168;8.568;2023-04-03T05:55:31;8.18;;;2.70;;
25846;SDS011;13676;50.168;8.568;2023-04-03T05:57:57;7.95;;;2.33;;
25846;SDS011;13676;50.168;8.568;2023-04-03T06:00:22;12.60;;;2.80;;
25846;SDS011;13676;50.168;8.568;2023-04-03T06:02:47;7.00;;;2.22;;
25846;SDS011;13676;50.168;8.568;2023-04-03T06:05:13;8.73;;;2.50;;
25846;SDS011;13676;50.168;8.568;2023-04-03T06:07:39;5.60;;;2.20;;
25846;SDS011;13676;50.168;8.568;2023-04-03T06:10:05;9.82;;;2.45;;
25846;SDS011;13676;50.168;8.568;2023-04-03T06:12:31;7.95;;;2.60;;
25846;SDS011;13676;50.168;8.568;2023-04-03T06:14:57;6.10;;;2.35;;
25846;SDS011;13676;50.168;8.568;2023-04-03T06:17:23;11.02;;;2.63;;
25846;SDS011;13676;50.168;8.568;2023-04-03T06:19:48;7.90;;;1.98;;
25846;SDS011;13676;50.168;8.568;2023-04-03T06:22:14;8.05;;;2.30;;
25846;SDS011;13676;50.168;8.568;2023-04-03T06:24:39;8.70;;;2.60;;
25846;SDS011;13676;50.168;8.568;2023-04-03T06:27:05;6.15;;;2.35;;
25846;SDS011;13676;50.168;8.568;2023-04-03T06:29:30;8.95;;;2.10;;
25846;SDS011;13676;50.168;8.568;2023-04-03T06:31:56;7.80;;;2.42;;
25846;SDS011;13676;50.168;8.568;2023-04-03T06:34:21;10.70;;;2.42;;
25846;SDS011;13676;50.168;8.568;2023-04-03T06:36:47;12.95;;;2.75;;
25846;SDS011;13676;50.168;8.568;2023-04-03T06:39:14;8.73;;;2.40;;
25846;SDS011;13676;50.168;8.568;2023-04-03T06:41:41;6.70;;;2.50;;
25846;SDS011;13676;50.168;8.568;2023-04-03T06:44:07;7.78;;;2.28;;
25846;SDS011;13676;50.168;8.568;2023-04-03T06:46:35;5.57;;;2.10;;
25846;SDS011;13676;50.168;8.568;2023-04-03T06:49:01;8.02;;;2.55;;
25846;SDS011;13676;50.168;8.568;2023-04-03T06:51:28;12.40;;;2.42;;
25846;SDS011;13676;50.168;8.568;2023-04-03T06:53:55;7.78;;;2.42;;
25846;SDS011;13676;50.168;8.568;2023-04-03T06:56:21;8.38;;;2.75;;
25846;SDS011;13676;50.168;8.568;2023-04-03T06:58:48;6.57;;;2.92;;
25846;SDS011;13676;50.168;8.568;2023-04-03T07:01:14;7.72;;;2.15;;
25846;SDS011;13676;50.168;8.568;2023-04-03T07:03:41;8.20;;;2.50;;
25846;SDS011;13676;50.168;8.568;2023-04-03T07:06:07;5.13;;;1.90;;
25846;SDS011;13676;50.168;8.568;2023-04-03T07:08:35;9.00;;;3.00;;
25846;SDS011;13676;50.168;8.568;2023-04-03T07:11:01;8.32;;;2.25;;
25846;SDS011;13676;50.168;8.568;2023-04-03T07:13:26;6.35;;;2.30;;
25846;SDS011;13676;50.168;8.568;2023-04-03T07:15:52;8.55;;;2.22;;
25846;SDS011;13676;50.168;8.568;2023-04-03T07:18:17;7.60;;;2.50;;
25846;SDS011;13676;50.168;8.568;2023-04-03T07:20:43;8.35;;;2.22;;
25846;SDS011;13676;50.168;8.568;2023-04-03T07:23:09;5.45;;;2.38;;
25846;SDS011;13676;50.168;8.568;2023-04-03T07:25:34;12.73;;;3.10;;
25846;SDS011;13676;50.168;8.568;2023-04-03T07:28:00;4.15;;;1.95;;
25846;SDS011;13676;50.168;8.568;2023-04-03T07:30:25;12.20;;;3.10;;
25846;SDS011;13676;50.168;8.568;2023-04-03T07:32:51;7.13;;;2.72;;
25846;SDS011;13676;50.168;8.568;2023-04-03T07:35:17;9.60;;;2.80;;
25846;SDS011;13676;50.168;8.568;2023-04-03T07:37:42;12.35;;;2.83;;
25846;SDS011;13676;50.168;8.568;2023-04-03T07:40:08;8.73;;;2.63;;
25846;SDS011;13676;50.168;8.568;2023-04-03T07:42:34;7.18;;;2.53;;
25846;SDS011;13676;50.168;8.568;2023-04-03T07:45:00;6.97;;;2.38;;
25846;SDS011;13676;50.168;8.568;2023-04-03T07:47:26;11.43;;;2.97;;
25846;SDS011;13676;50.168;8.568;2023-04-03T07:49:52;14.75;;;2.92;;
25846;SDS011;13676;50.168;8.568;2023-04-03T07:52:17;7.25;;;2.75;;
25846;SDS011;13676;50.168;8.568;2023-04-03T07:54:43;12.23;;;3.03;;
25846;SDS011;13676;50.168;8.568;2023-04-03T07:57:08;7.72;;;2.47;;
25846;SDS011;13676;50.168;8.568;2023-04-03T07:59:33;10.23;;;2.58;;
25846;SDS011;13676;50.168;8.568;2023-04-03T08:01:58;6.78;;;2.35;;
25846;SDS011;13676;50.168;8.568;2023-04-03T08:04:24;11.50;;;2.83;;
25846;SDS011;13676;50.168;8.568;2023-04-03T08:06:51;8.63;;;3.05;;
25846;SDS011;13676;50.168;8.568;2023-04-03T08:09:16;7.50;;;2.67;;
25846;SDS011;13676;50.168;8.568;2023-04-03T08:11:42;6.05;;;2.20;;
25846;SDS011;13676;50.168;8.568;2023-04-03T08:14:07;6.97;;;2.33;;
25846;SDS011;13676;50.168;8.568;2023-04-03T08:16:33;7.05;;;2.50;;
25846;SDS011;13676;50.168;8.568;2023-04-03T08:18:58;11.25;;;2.72;;
25846;SDS011;13676;50.168;8.568;2023-04-03T08:21:24;6.95;;;2.63;;
25846;SDS011;13676;50.168;8.568;2023-04-03T08:23:50;7.28;;;2.88;;
25846;SDS011;13676;50.168;8.568;2023-04-03T08:26:16;8.73;;;2.60;;
25846;SDS011;13676;50.168;8.568;2023-04-03T08:31:13;5.70;;;2.10;;
25846;SDS011;13676;50.168;8.568;2023-04-03T08:33:40;5.78;;;2.10;;
25846;SDS011;13676;50.168;8.568;2023-04-03T08:36:07;6.43;;;2.22;;
25846;SDS011;13676;50.168;8.568;2023-04-03T08:38:39;5.05;;;2.25;;
25846;SDS011;13676;50.168;8.568;2023-04-03T08:43:48;4.75;;;1.92;;
25846;SDS011;13676;50.168;8.568;2023-04-03T08:46:22;7.00;;;2.53;;
25846;SDS011;13676;50.168;8.568;2023-04-03T08:48:51;8.20;;;2.25;;
25846;SDS011;13676;50.168;8.568;2023-04-03T08:51:17;8.30;;;2.35;;
25846;SDS011;13676;50.168;8.568;2023-04-03T08:53:48;5.63;;;2.00;;
25846;SDS011;13676;50.168;8.568;2023-04-03T08:56:16;4.68;;;1.90;;
25846;SDS011;13676;50.168;8.568;2023-04-03T08:58:51;7.75;;;2.47;;
25846;SDS011;13676;50.168;8.568;2023-04-03T09:01:27;9.30;;;2.22;;
25846;SDS011;13676;50.168;8.568;2023-04-03T09:03:57;9.05;;;2.95;;
25846;SDS011;13676;50.168;8.568;2023-04-03T09:06:26;12.18;;;2.70;;
25846;SDS011;13676;50.168;8.568;2023-04-03T09:12:18;8.90;;;2.17;;
25846;SDS011;13676;50.168;8.568;2023-04-03T09:17:41;6.55;;;1.95;;
25846;SDS011;13676;50.168;8.568;2023-04-03T09:20:18;6.80;;;2.10;;
25846;SDS011;13676;50.168;8.568;2023-04-03T09:22:46;6.60;;;2.42;;
25846;SDS011;13676;50.168;8.568;2023-04-03T09:25:19;5.28;;;1.92;;
25846;SDS011;13676;50.168;8.568;2023-04-03T09:27:46;5.50;;;2.28;;
25846;SDS011;13676;50.168;8.568;2023-04-03T09:30:16;8.10;;;2.72;;
25846;SDS011;13676;50.168;8.568;2023-04-03T09:32:50;8.60;;;2.35;;
25846;SDS011;13676;50.168;8.568;2023-04-03T09:38:00;7.18;;;2.40;;
25846;SDS011;13676;50.168;8.568;2023-04-03T09:45:27;8.23;;;2.63;;
25846;SDS011;13676;50.168;8.568;2023-04-03T09:50:52;8.88;;;2.38;;
25846;SDS011;13676;50.168;8.568;2023-04-03T10:01:25;6.10;;;1.98;;
25846;SDS011;13676;50.168;8.568;2023-04-03T10:04:07;7.47;;;2.30;;
25846;SDS011;13676;50.168;8.568;2023-04-03T10:06:44;6.70;;;2.70;;
25846;SDS011;13676;50.168;8.568;2023-04-03T10:09:25;6.05;;;2.10;;
25846;SDS011;13676;50.168;8.568;2023-04-03T10:14:29;11.35;;;2.08;;
25846;SDS011;13676;50.168;8.568;2023-04-03T10:22:18;5.55;;;1.83;;
25846;SDS011;13676;50.168;8.568;2023-04-03T10:32:58;8.45;;;2.47;;
25846;SDS011;13676;50.168;8.568;2023-04-03T10:40:28;5.88;;;2.65;;
25846;SDS011;13676;50.168;8.568;2023-04-03T10:43:12;6.85;;;1.95;;
25846;SDS011;13676;50.168;8.568;2023-04-03T10:54:01;7.78;;;2.22;;
25846;SDS011;13676;50.168;8.568;2023-04-03T10:56:52;6.45;;;2.25;;
25846;SDS011;13676;50.168;8.568;2023-04-03T11:02:23;5.50;;;2.20;;
25846;SDS011;13676;50.168;8.568;2023-04-03T11:04:53;6.22;;;2.30;;
25846;SDS011;13676;50.168;8.568;2023-04-03T11:07:30;5.00;;;2.28;;
25846;SDS011;13676;50.168;8.568;2023-04-03T11:10:00;4.50;;;2.35;;
25846;SDS011;13676;50.168;8.568;2023-04-03T11:12:32;6.72;;;2.10;;
25846;SDS011;13676;50.168;8.568;2023-04-03T11:15:11;6.32;;;2.30;;
25846;SDS011;13676;50.168;8.568;2023-04-03T11:17:39;5.70;;;2.30;;
25846;SDS011;13676;50.168;8.568;2023-04-03T11:20:24;9.70;;;2.58;;
25846;SDS011;13676;50.168;8.568;2023-04-03T11:23:06;5.18;;;2.00;;
25846;SDS011;13676;50.168;8.568;2023-04-03T11:25:37;9.00;;;2.40;;
25846;SDS011;13676;50.168;8.568;2023-04-03T11:28:05;5.63;;;2.72;;
25846;SDS011;13676;50.168;8.568;2023-04-03T11:35:54;7.47;;;2.70;;
25846;SDS011;13676;50.168;8.568;2023-04-03T11:38:26;3.80;;;1.88;;
25846;SDS011;13676;50.168;8.568;2023-04-03T11:40:54;4.47;;;2.03;;
25846;SDS011;13676;50.168;8.568;2023-04-03T11:43:21;5.55;;;2.10;;
25846;SDS011;13676;50.168;8.568;2023-04-03T11:45:52;5.95;;;2.22;;
25846;SDS011;13676;50.168;8.568;2023-04-03T11:50:53;6.68;;;2.40;;
25846;SDS011;13676;50.168;8.568;2023-04-03T11:56:00;5.72;;;2.00;;
25846;SDS011;13676;50.168;8.568;2023-04-03T11:58:33;5.10;;;1.90;;
25846;SDS011;13676;50.168;8.568;2023-04-03T12:05:52;6.40;;;2.25;;
25846;SDS011;13676;50.168;8.568;2023-04-03T12:13:38;4.18;;;2.00;;
25846;SDS011;13676;50.168;8.568;2023-04-03T12:16:04;6.38;;;1.92;;
25846;SDS011;13676;50.168;8.568;2023-04-03T12:18:31;6.50;;;2.38;;
25846;SDS011;13676;50.168;8.568;2023-04-03T12:21:00;5.40;;;2.25;;
25846;SDS011;13676;50.168;8.568;2023-04-03T12:23:30;5.07;;;2.28;;
25846;SDS011;13676;50.168;8.568;2023-04-03T12:26:04;3.88;;;2.00;;
25846;SDS011;13676;50.168;8.568;2023-04-03T12:28:39;4.50;;;2.05;;
25846;SDS011;13676;50.168;8.568;2023-04-03T12:31:05;3.28;;;1.83;;
25846;SDS011;13676;50.168;8.568;2023-04-03T12:36:30;3.72;;;1.70;;
25846;SDS011;13676;50.168;8.568;2023-04-03T12:42:15;6.70;;;2.35;;
25846;SDS011;13676;50.168;8.568;2023-04-03T12:47:29;5.38;;;1.75;;
25846;SDS011;13676;50.168;8.568;2023-04-03T12:49:58;6.65;;;2.20;;
25846;SDS011;13676;50.168;8.568;2023-04-03T12:52:39;5.03;;;2.17;;
25846;SDS011;13676;50.168;8.568;2023-04-03T12:57:39;3.30;;;1.88;;
25846;SDS011;13676;50.168;8.568;2023-04-03T13:00:18;5.47;;;2.15;;
25846;SDS011;13676;50.168;8.568;2023-04-03T13:03:04;3.30;;;1.55;;
25846;SDS011;13676;50.168;8.568;2023-04-03T13:05:32;6.50;;;2.10;;
25846;SDS011;13676;50.168;8.568;2023-04-03T13:08:05;3.00;;;1.45;;
25846;SDS011;13676;50.168;8.568;2023-04-03T13:10:47;6.10;;;2.00;;
25846;SDS011;13676;50.168;8.568;2023-04-03T13:13:21;5.13;;;1.70;;
25846;SDS011;13676;50.168;8.568;2023-04-03T13:15:48;4.65;;;2.08;;
25846;SDS011;13676;50.168;8.568;2023-04-03T13:18:31;6.07;;;1.98;;
25846;SDS011;13676;50.168;8.568;2023-04-03T13:23:30;6.15;;;2.38;;
25846;SDS011;13676;50.168;8.568;2023-04-03T13:28:27;8.55;;;2.80;;
25846;SDS011;13676;50.168;8.568;2023-04-03T13:30:55;6.53;;;2.67;;
25846;SDS011;13676;50.168;8.568;2023-04-03T13:33:54;9.07;;;2.08;;
25846;SDS011;13676;50.168;8.568;2023-04-03T13:36:21;6.18;;;2.75;;
25846;SDS011;13676;50.168;8.568;2023-04-03T13:42:30;7.63;;;2.15;;
25846;SDS011;13676;50.168;8.568;2023-04-03T13:44:45;6.28;;;2.55;;
25846;SDS011;13676;50.168;8.568;2023-04-03T13:47:17;5.85;;;2.80;;
25846;SDS011;13676;50.168;8.568;2023-04-03T13:52:26;6.95;;;2.83;;
25846;SDS011;13676;50.168;8.568;2023-04-03T13:55:02;8.15;;;2.72;;
25846;SDS011;13676;50.168;8.568;2023-04-03T13:57:50;5.55;;;2.00;;
25846;SDS011;13676;50.168;8.568;2023-04-03T14:03:18;4.82;;;1.90;;
25846;SDS011;13676;50.168;8.568;2023-04-03T14:05:50;5.78;;;1.73;;
25846;SDS011;13676;50.168;8.568;2023-04-03T14:08:15;13.13;;;2.58;;
25846;SDS011;13676;50.168;8.568;2023-04-03T14:10:41;7.13;;;2.40;;
25846;SDS011;13676;50.168;8.568;2023-04-03T14:13:09;5.03;;;1.77;;
25846;SDS011;13676;50.168;8.568;2023-04-03T14:15:37;4.45;;;1.70;;
25846;SDS011;13676;50.168;8.568;2023-04-03T14:18:02;5.03;;;1.65;;
25846;SDS011;13676;50.168;8.568;2023-04-03T14:20:28;4.53;;;1.70;;
25846;SDS011;13676;50.168;8.568;2023-04-03T14:22:53;4.63;;;1.75;;
25846;SDS011;13676;50.168;8.568;2023-04-03T14:25:20;3.95;;;1.83;;
25846;SDS011;13676;50.168;8.568;2023-04-03T14:27:49;8.30;;;2.00;;
25846;SDS011;13676;50.168;8.568;2023-04-03T14:30:27;3.22;;;1.40;;
25846;SDS011;13676;50.168;8.568;2023-04-03T14:32:53;5.38;;;1.63;;
25846;SDS011;13676;50.168;8.568;2023-04-03T14:35:19;3.90;;;1.50;;
25846;SDS011;13676;50.168;8.568;2023-04-03T14:37:45;2.65;;;1.30;;
25846;SDS011;13676;50.168;8.568;2023-04-03T14:40:16;4.05;;;1.63;;
25846;SDS011;13676;50.168;8.568;2023-04-03T14:42:49;5.38;;;1.60;;
25846;SDS011;13676;50.168;8.568;2023-04-03T14:45:17;3.75;;;1.40;;
25846;SDS011;13676;50.168;8.568;2023-04-03T14:47:51;2.33;;;1.20;;
25846;SDS011;13676;50.168;8.568;2023-04-03T14:50:19;6.88;;;1.50;;
25846;SDS011;13676;50.168;8.568;2023-04-03T14:52:47;4.78;;;1.50;;
25846;SDS011;13676;50.168;8.568;2023-04-03T14:55:14;4.72;;;1.42;;
25846;SDS011;13676;50.168;8.568;2023-04-03T14:57:40;4.78;;;1.48;;
25846;SDS011;13676;50.168;8.568;2023-04-03T15:00:07;3.45;;;1.50;;
25846;SDS011;13676;50.168;8.568;2023-04-03T15:02:36;2.55;;;1.23;;
25846;SDS011;13676;50.168;8.568;2023-04-03T15:05:04;9.73;;;1.33;;
25846;SDS011;13676;50.168;8.568;2023-04-03T15:07:32;5.95;;;1.50;;
25846;SDS011;13676;50.168;8.568;2023-04-03T15:10:06;5.32;;;1.60;;
25846;SDS011;13676;50.168;8.568;2023-04-03T15:12:38;3.75;;;1.45;;
25846;SDS011;13676;50.168;8.568;2023-04-03T15:15:04;2.40;;;1.30;;
25846;SDS011;13676;50.168;8.568;2023-04-03T15:17:29;2.78;;;1.33;;
25846;SDS011;13676;50.168;8.568;2023-04-03T15:19:54;3.40;;;1.33;;
25846;SDS011;13676;50.168;8.568;2023-04-03T15:22:20;6.53;;;1.80;;
25846;SDS011;13676;50.168;8.568;2023-04-03T15:24:49;5.38;;;1.17;;
25846;SDS011;13676;50.168;8.568;2023-04-03T15:27:14;2.88;;;1.35;;
25846;SDS011;13676;50.168;8.568;2023-04-03T15:29:40;7.70;;;2.00;;
25846;SDS011;13676;50.168;8.568;2023-04-03T15:32:09;3.63;;;1.50;;
25846;SDS011;13676;50.168;8.568;2023-04-03T15:34:35;8.15;;;1.40;;
25846;SDS011;13676;50.168;8.568;2023-04-03T15:37:01;3.10;;;1.33;;
25846;SDS011;13676;50.168;8.568;2023-04-03T15:39:26;3.00;;;1.10;;
25846;SDS011;13676;50.168;8.568;2023-04-03T15:41:55;2.85;;;1.08;;
25846;SDS011;13676;50.168;8.568;2023-04-03T15:44:21;4.80;;;1.40;;
25846;SDS011;13676;50.168;8.568;2023-04-03T15:46:47;3.47;;;1.40;;
25846;SDS011;13676;50.168;8.568;2023-04-03T15:49:19;5.32;;;1.60;;
25846;SDS011;13676;50.168;8.568;2023-04-03T15:51:46;4.20;;;1.38;;
25846;SDS011;13676;50.168;8.568;2023-04-03T15:54:11;3.00;;;1.35;;
25846;SDS011;13676;50.168;8.568;2023-04-03T15:56:37;2.88;;;1.27;;
25846;SDS011;13676;50.168;8.568;2023-04-03T15:59:02;5.05;;;1.55;;
25846;SDS011;13676;50.168;8.568;2023-04-03T16:01:28;2.35;;;1.52;;
25846;SDS011;13676;50.168;8.568;2023-04-03T16:03:54;4.82;;;1.58;;
25846;SDS011;13676;50.168;8.568;2023-04-03T16:06:19;5.35;;;1.42;;
25846;SDS011;13676;50.168;8.568;2023-04-03T16:08:46;3.38;;;1.35;;
25846;SDS011;13676;50.168;8.568;2023-04-03T16:11:12;3.10;;;1.50;;
25846;SDS011;13676;50.168;8.568;2023-04-03T16:13:37;3.17;;;1.33;;
25846;SDS011;13676;50.168;8.568;2023-04-03T16:16:03;3.33;;;1.67;;
25846;SDS011;13676;50.168;8.568;2023-04-03T16:18:29;2.45;;;1.33;;
25846;SDS011;13676;50.168;8.568;2023-04-03T16:20:55;3.22;;;1.58;;
25846;SDS011;13676;50.168;8.568;2023-04-03T16:23:23;3.53;;;1.50;;
25846;SDS011;13676;50.168;8.568;2023-04-03T16:25:49;5.10;;;1.60;;
25846;SDS011;13676;50.168;8.568;2023-04-03T16:28:15;4.00;;;1.30;;
25846;SDS011;13676;50.168;8.568;2023-04-03T16:30:42;5.38;;;1.85;;
25846;SDS011;13676;50.168;8.568;2023-04-03T16:33:09;2.13;;;1.25;;
25846;SDS011;13676;50.168;8.568;2023-04-03T16:35:35;2.65;;;1.50;;
25846;SDS011;13676;50.168;8.568;2023-04-03T16:38:00;3.60;;;1.58;;
25846;SDS011;13676;50.168;8.568;2023-04-03T16:40:25;3.20;;;1.48;;
25846;SDS011;13676;50.168;8.568;2023-04-03T16:42:51;7.40;;;2.50;;
25846;SDS011;13676;50.168;8.568;2023-04-03T16:45:16;4.53;;;2.13;;